Time,TemperatureF,DewpointF,PressureIn,WindDirection,WindDirectionDegrees,WindSpeedMPH,WindSpeedGustMPH,Humidity,HourlyPrecipIn,Conditions,Clouds,dailyrainin,SoftwareType,DateUTC
2013-04-14 00:00:00,59.0,34.7,30.01,North,355,0.0,2.0,40,0.00,,,0.00,HR-IXPWINDi_r2_v1.2.,2013-04-14 04:00:00,
2013-04-14 00:05:00,58.8,33.2,30.01,ESE,114,0.0,3.0,38,0.00,,,0.00,HR-IXPWINDi_r2_v1.2.,2013-04-14 04:05:00,
2013-04-14 00:10:00,58.8,33.2,30.01,ESE,114,1.0,3.0,38,0.00,,,0.00,HR-IXPWINDi_r2_v1.2.,2013-04-14 04:10:00,
2013-04-14 00:15:00,58.7,33.1,30.01,SSE,149,3.0,3.0,38,0.00,,,0.00,HR-IXPWINDi_r2_v1.2.,2013-04-14 04:15:00,
2013-04-14 00:20:00,58.8,33.9,30.01,NW,306,0.0,4.0,39,0.00,,,0.00,HR-IXPWINDi_r2_v1.2.,2013-04-14 04:20:00,
2013-04-14 00:26:00,58.7,33.8,30.01,NW,306,0.0,4.0,39,0.00,,,0.00,HR-IXPWINDi_r2_v1.2.,2013-04-14 04:26:00,
2013-04-14 00:31:00,58.7,33.8,30.01,NNE,32,0.0,4.0,39,0.00,,,0.00,HR-IXPWINDi_r2_v1.2.,2013-04-14 04:31:00,
2013-04-14 00:37:00,58.7,33.8,30.01,ESE,121,0.0,4.0,39,0.00,,,0.00,HR-IXPWINDi_r2_v1.2.,2013-04-14 04:37:00,
2013-04-14 00:42:00,58.6,34.3,30.01,SE,144,0.0,4.0,40,0.00,,,0.00,HR-IXPWINDi_r2_v1.2.,2013-04-14 04:42:00,
2013-04-14 00:47:00,58.7,33.8,30.01,NW,320,0.0,5.0,39,0.00,,,0.00,HR-IXPWINDi_r2_v1.2.,2013-04-14 04:47:00,
2013-04-14 00:53:00,58.5,34.2,30.01,NW,305,2.0,5.0,40,0.00,,,0.00,HR-IXPWINDi_r2_v1.2.,2013-04-14 04:53:00,
2013-04-14 00:58:00,58.3,34.7,30.02,NNW,341,2.0,3.0,41,0.00,,,0.00,HR-IXPWINDi_r2_v1.2.,2013-04-14 04:58:00,
2013-04-14 01:03:00,58.2,35.8,30.02,NW,319,0.0,3.0,43,0.00,,,0.00,HR-IXPWINDi_r2_v1.2.,2013-04-14 05:03:00,
2013-04-14 01:08:00,58.1,33.9,30.01,NW,319,0.0,3.0,40,0.00,,,0.00,HR-IXPWINDi_r2_v1.2.,2013-04-14 05:08:00,
2013-04-14 01:13:00,58.1,36.3,30.01,NW,310,0.0,3.0,44,0.00,,,0.00,HR-IXPWINDi_r2_v1.2.,2013-04-14 05:13:00,
2013-04-14 01:18:00,58.0,34.4,30.01,West,280,0.0,5.0,41,0.00,,,0.00,HR-IXPWINDi_r2_v1.2.,2013-04-14 05:18:00,
2013-04-14 01:24:00,58.0,33.8,30.01,NNW,333,0.0,5.0,40,0.00,,,0.00,HR-IXPWINDi_r2_v1.2.,2013-04-14 05:24:00,
2013-04-14 01:29:00,58.2,34.6,30.01,NW,310,3.0,5.0,41,0.00,,,0.00,HR-IXPWINDi_r2_v1.2.,2013-04-14 05:29:00,
2013-04-14 01:34:00,58.2,34.6,30.01,NE,49,0.0,5.0,41,0.00,,,0.00,HR-IXPWINDi_r2_v1.2.,2013-04-14 05:34:00,
2013-04-14 01:39:00,58.2,34.6,30.01,ESE,108,2.0,5.0,41,0.00,,,0.00,HR-IXPWINDi_r2_v1.2.,2013-04-14 05:39:00,
2013-04-14 01:44:00,58.2,34.0,30.01,SE,145,0.0,5.0,40,0.00,,,0.00,HR-IXPWINDi_r2_v1.2.,2013-04-14 05:44:00,
2013-04-14 01:49:00,58.2,34.6,30.01,SE,146,0.0,5.0,41,0.00,,,0.00,HR-IXPWINDi_r2_v1.2.,2013-04-14 05:49:00,
2013-04-14 01:55:00,58.1,34.5,30.01,NNW,341,3.0,3.0,41,0.00,,,0.00,HR-IXPWINDi_r2_v1.2.,2013-04-14 05:55:00,
2013-04-14 02:00:00,58.0,34.4,30.02,NE,44,0.0,3.0,41,0.00,,,0.00,HR-IXPWINDi_r2_v1.2.,2013-04-14 06:00:00,
2013-04-14 02:05:00,58.0,33.8,30.02,NE,36,0.0,4.0,40,0.00,,,0.00,HR-IXPWINDi_r2_v1.2.,2013-04-14 06:05:00,
2013-04-14 02:10:00,58.0,34.4,30.02,North,10,0.0,4.0,41,0.00,,,0.00,HR-IXPWINDi_r2_v1.2.,2013-04-14 06:10:00,
2013-04-14 02:15:00,57.9,34.3,30.02,NW,311,0.0,4.0,41,0.00,,,0.00,HR-IXPWINDi_r2_v1.2.,2013-04-14 06:15:00,
2013-04-14 02:21:00,57.8,34.2,30.02,NW,326,2.0,4.0,41,0.00,,,0.00,HR-IXPWINDi_r2_v1.2.,2013-04-14 06:21:00,
2013-04-14 02:26:00,57.7,35.3,30.02,ENE,59,0.0,4.0,43,0.00,,,0.00,HR-IXPWINDi_r2_v1.2.,2013-04-14 06:26:00,
2013-04-14 02:31:00,57.5,35.7,30.02,NNW,345,0.0,3.0,44,0.00,,,0.00,HR-IXPWINDi_r2_v1.2.,2013-04-14 06:31:00,
2013-04-14 02:37:00,57.0,35.3,30.02,NNE,30,0.0,3.0,44,0.00,,,0.00,HR-IXPWINDi_r2_v1.2.,2013-04-14 06:37:00,
2013-04-14 02:42:00,56.5,35.4,30.02,ESE,123,0.0,2.0,45,0.00,,,0.00,HR-IXPWINDi_r2_v1.2.,2013-04-14 06:42:00,
2013-04-14 02:47:00,55.9,34.3,30.02,NW,309,3.0,3.0,44,0.00,,,0.00,HR-IXPWINDi_r2_v1.2.,2013-04-14 06:47:00,
2013-04-14 02:52:00,55.8,35.8,30.02,NNE,19,0.0,4.0,47,0.00,,,0.00,HR-IXPWINDi_r2_v1.2.,2013-04-14 06:52:00,
2013-04-14 02:57:00,55.5,35.0,30.02,NE,42,0.0,4.0,46,0.00,,,0.00,HR-IXPWINDi_r2_v1.2.,2013-04-14 06:57:00,
2013-04-14 03:02:00,55.1,34.1,30.02,NE,44,0.0,2.0,45,0.00,,,0.00,HR-IXPWINDi_r2_v1.2.,2013-04-14 07:02:00,
2013-04-14 03:08:00,54.8,35.5,30.02,NE,34,0.0,2.0,48,0.00,,,0.00,HR-IXPWINDi_r2_v1.2.,2013-04-14 07:08:00,
2013-04-14 03:13:00,54.4,35.1,30.02,NNW,338,0.0,2.0,48,0.00,,,0.00,HR-IXPWINDi_r2_v1.2.,2013-04-14 07:13:00,
2013-04-14 03:18:00,53.9,35.1,30.02,NNW,338,0.0,2.0,49,0.00,,,0.00,HR-IXPWINDi_r2_v1.2.,2013-04-14 07:18:00,
2013-04-14 03:23:00,53.6,34.9,30.02,NE,46,0.0,2.0,49,0.00,,,0.00,HR-IXPWINDi_r2_v1.2.,2013-04-14 07:23:00,
2013-04-14 03:28:00,53.4,34.7,30.03,NNE,26,0.0,2.0,49,0.00,,,0.00,HR-IXPWINDi_r2_v1.2.,2013-04-14 07:28:00,
2013-04-14 03:33:00,53.1,35.9,30.03,NNW,335,0.0,1.0,52,0.00,,,0.00,HR-IXPWINDi_r2_v1.2.,2013-04-14 07:33:00,
2013-04-14 03:39:00,52.7,34.5,30.03,NW,321,0.0,2.0,50,0.00,,,0.00,HR-IXPWINDi_r2_v1.2.,2013-04-14 07:39:00,
2013-04-14 03:44:00,52.5,34.9,30.03,NW,321,0.0,2.0,51,0.00,,,0.00,HR-IXPWINDi_r2_v1.2.,2013-04-14 07:44:00,
2013-04-14 03:49:00,52.2,35.1,30.03,NW,321,0.0,1.0,52,0.00,,,0.00,HR-IXPWINDi_r2_v1.2.,2013-04-14 07:49:00,
2013-04-14 03:54:00,51.9,35.3,30.03,NW,321,0.0,1.0,53,0.00,,,0.00,HR-IXPWINDi_r2_v1.2.,2013-04-14 07:54:00,
2013-04-14 03:59:00,51.7,34.6,30.03,WSW,254,0.0,1.0,52,0.00,,,0.00,HR-IXPWINDi_r2_v1.2.,2013-04-14 07:59:00,
2013-04-14 04:05:00,51.9,35.3,30.03,WNW,289,0.0,3.0,53,0.00,,,0.00,HR-IXPWINDi_r2_v1.2.,2013-04-14 08:05:00,
2013-04-14 04:10:00,51.7,35.1,30.03,West,281,0.0,3.0,53,0.00,,,0.00,HR-IXPWINDi_r2_v1.2.,2013-04-14 08:10:00,
2013-04-14 04:15:00,51.7,35.1,30.04,West,281,0.0,2.0,53,0.00,,,0.00,HR-IXPWINDi_r2_v1.2.,2013-04-14 08:15:00,
2013-04-14 04:20:00,51.6,35.9,30.04,West,281,0.0,2.0,55,0.00,,,0.00,HR-IXPWINDi_r2_v1.2.,2013-04-14 08:20:00,
2013-04-14 04:25:00,51.5,35.4,30.04,West,281,0.0,2.0,54,0.00,,,0.00,HR-IXPWINDi_r2_v1.2.,2013-04-14 08:25:00,
2013-04-14 04:31:00,51.7,35.1,30.04,SSW,201,0.0,1.0,53,0.00,,,0.00,HR-IXPWINDi_r2_v1.2.,2013-04-14 08:31:00,
2013-04-14 04:36:00,51.9,35.3,30.04,West,272,1.0,1.0,53,0.00,,,0.00,HR-IXPWINDi_r2_v1.2.,2013-04-14 08:36:00,
2013-04-14 04:41:00,52.0,35.4,30.05,West,276,1.0,2.0,53,0.00,,,0.00,HR-IXPWINDi_r2_v1.2.,2013-04-14 08:41:00,
2013-04-14 04:46:00,51.9,36.2,30.05,West,280,0.0,2.0,55,0.00,,,0.00,HR-IXPWINDi_r2_v1.2.,2013-04-14 08:46:00,
2013-04-14 04:51:00,51.8,36.1,30.05,West,280,0.0,2.0,55,0.00,,,0.00,HR-IXPWINDi_r2_v1.2.,2013-04-14 08:51:00,
2013-04-14 04:56:00,51.6,35.9,30.05,West,280,0.0,0.0,55,0.00,,,0.00,HR-IXPWINDi_r2_v1.2.,2013-04-14 08:56:00,
2013-04-14 05:01:00,51.4,36.2,30.05,West,280,0.0,0.0,56,0.00,,,0.00,HR-IXPWINDi_r2_v1.2.,2013-04-14 09:01:00,
2013-04-14 05:06:00,51.1,35.9,30.05,West,280,0.0,0.0,56,0.00,,,0.00,HR-IXPWINDi_r2_v1.2.,2013-04-14 09:06:00,
2013-04-14 05:12:00,51.0,36.3,30.05,West,280,0.0,1.0,57,0.00,,,0.00,HR-IXPWINDi_r2_v1.2.,2013-04-14 09:12:00,
2013-04-14 05:17:00,51.1,36.8,30.06,West,280,0.0,1.0,58,0.00,,,0.00,HR-IXPWINDi_r2_v1.2.,2013-04-14 09:17:00,
2013-04-14 05:22:00,51.2,36.5,30.06,WNW,285,0.0,2.0,57,0.00,,,0.00,HR-IXPWINDi_r2_v1.2.,2013-04-14 09:22:00,
2013-04-14 05:27:00,51.5,37.2,30.05,NE,46,0.0,2.0,58,0.00,,,0.00,HR-IXPWINDi_r2_v1.2.,2013-04-14 09:27:00,
2013-04-14 05:32:00,51.9,36.7,30.05,WNW,286,0.0,2.0,56,0.00,,,0.00,HR-IXPWINDi_r2_v1.2.,2013-04-14 09:32:00,
2013-04-14 05:38:00,52.1,35.9,30.05,NW,317,1.0,3.0,54,0.00,,,0.00,HR-IXPWINDi_r2_v1.2.,2013-04-14 09:38:00,
2013-04-14 05:43:00,52.4,36.7,30.05,NNW,346,0.0,3.0,55,0.00,,,0.00,HR-IXPWINDi_r2_v1.2.,2013-04-14 09:43:00,
2013-04-14 05:48:00,52.7,37.4,30.05,NNW,331,0.0,3.0,56,0.00,,,0.00,HR-IXPWINDi_r2_v1.2.,2013-04-14 09:48:00,
2013-04-14 05:53:00,52.7,36.0,30.05,NW,306,0.0,4.0,53,0.00,,,0.00,HR-IXPWINDi_r2_v1.2.,2013-04-14 09:53:00,
2013-04-14 05:59:00,52.8,37.0,30.05,NW,321,1.0,4.0,55,0.00,,,0.00,HR-IXPWINDi_r2_v1.2.,2013-04-14 09:59:00,
2013-04-14 06:04:00,52.7,36.5,30.05,NW,321,0.0,4.0,54,0.00,,,0.00,HR-IXPWINDi_r2_v1.2.,2013-04-14 10:04:00,
2013-04-14 06:09:00,52.4,36.2,30.05,NW,321,0.0,1.0,54,0.00,,,0.00,HR-IXPWINDi_r2_v1.2.,2013-04-14 10:09:00,
2013-04-14 06:14:00,52.3,36.6,30.06,NW,321,0.0,2.0,55,0.00,,,0.00,HR-IXPWINDi_r2_v1.2.,2013-04-14 10:14:00,
2013-04-14 06:20:00,51.9,36.7,30.06,NW,321,0.0,2.0,56,0.00,,,0.00,HR-IXPWINDi_r2_v1.2.,2013-04-14 10:20:00,
2013-04-14 06:25:00,51.7,36.0,30.06,NW,321,0.0,2.0,55,0.00,,,0.00,HR-IXPWINDi_r2_v1.2.,2013-04-14 10:25:00,
2013-04-14 06:30:00,51.4,36.2,30.06,NW,321,0.0,2.0,56,0.00,,,0.00,HR-IXPWINDi_r2_v1.2.,2013-04-14 10:30:00,
2013-04-14 06:35:00,51.1,35.9,30.07,NW,321,0.0,0.0,56,0.00,,,0.00,HR-IXPWINDi_r2_v1.2.,2013-04-14 10:35:00,
2013-04-14 06:40:00,50.8,36.1,30.07,NW,321,0.0,0.0,57,0.00,,,0.00,HR-IXPWINDi_r2_v1.2.,2013-04-14 10:40:00,
2013-04-14 06:45:00,50.4,36.1,30.07,NW,321,0.0,0.0,58,0.00,,,0.00,HR-IXPWINDi_r2_v1.2.,2013-04-14 10:45:00,
2013-04-14 06:51:00,50.0,35.8,30.07,NW,321,0.0,1.0,58,0.00,,,0.00,HR-IXPWINDi_r2_v1.2.,2013-04-14 10:51:00,
2013-04-14 06:56:00,49.7,35.5,30.07,NW,321,0.0,1.0,58,0.00,,,0.00,HR-IXPWINDi_r2_v1.2.,2013-04-14 10:56:00,
2013-04-14 07:01:00,49.8,36.0,30.08,ENE,72,0.0,1.0,59,0.00,,,0.00,HR-IXPWINDi_r2_v1.2.,2013-04-14 11:01:00,
2013-04-14 07:06:00,50.1,35.9,30.07,ENE,72,0.0,1.0,58,0.00,,,0.00,HR-IXPWINDi_r2_v1.2.,2013-04-14 11:06:00,
2013-04-14 07:12:00,50.3,35.2,30.08,NNW,329,0.0,1.0,56,0.00,,,0.00,HR-IXPWINDi_r2_v1.2.,2013-04-14 11:12:00,
2013-04-14 07:17:00,50.7,36.4,30.08,NNW,334,0.0,2.0,58,0.00,,,0.00,HR-IXPWINDi_r2_v1.2.,2013-04-14 11:17:00,
2013-04-14 07:22:00,50.8,36.5,30.09,SSW,211,0.0,3.0,58,0.00,,,0.00,HR-IXPWINDi_r2_v1.2.,2013-04-14 11:22:00,
2013-04-14 07:27:00,50.7,37.7,30.09,SW,219,0.0,3.0,61,0.00,,,0.00,HR-IXPWINDi_r2_v1.2.,2013-04-14 11:27:00,
2013-04-14 07:32:00,50.3,38.1,30.09,SSE,165,0.0,2.0,63,0.00,,,0.00,HR-IXPWINDi_r2_v1.2.,2013-04-14 11:32:00,
2013-04-14 07:37:00,49.9,38.6,30.09,South,170,0.0,2.0,65,0.00,,,0.00,HR-IXPWINDi_r2_v1.2.,2013-04-14 11:37:00,
2013-04-14 07:42:00,49.8,38.1,30.08,SE,142,0.0,2.0,64,0.00,,,0.00,HR-IXPWINDi_r2_v1.2.,2013-04-14 11:42:00,
2013-04-14 07:48:00,49.9,38.2,30.08,SSE,167,0.0,2.0,64,0.00,,,0.00,HR-IXPWINDi_r2_v1.2.,2013-04-14 11:48:00,
2013-04-14 07:53:00,50.1,38.0,30.09,SSE,167,0.0,2.0,63,0.00,,,0.00,HR-IXPWINDi_r2_v1.2.,2013-04-14 11:53:00,
2013-04-14 07:58:00,50.8,38.2,30.08,East,81,0.0,2.0,62,0.00,,,0.00,HR-IXPWINDi_r2_v1.2.,2013-04-14 11:58:00,
2013-04-14 08:03:00,51.2,38.6,30.09,ENE,69,0.0,2.0,62,0.00,,,0.00,HR-IXPWINDi_r2_v1.2.,2013-04-14 12:03:00,
2013-04-14 08:08:00,51.8,38.7,30.09,East,84,0.0,2.0,61,0.00,,,0.00,HR-IXPWINDi_r2_v1.2.,2013-04-14 12:08:00,
2013-04-14 08:13:00,52.4,39.3,30.09,NNE,24,0.0,3.0,61,0.00,,,0.00,HR-IXPWINDi_r2_v1.2.,2013-04-14 12:13:00,
2013-04-14 08:18:00,52.8,38.4,30.09,East,83,0.0,3.0,58,0.00,,,0.00,HR-IXPWINDi_r2_v1.2.,2013-04-14 12:18:00,
2013-04-14 08:23:00,53.5,41.2,30.09,East,85,1.0,2.0,63,0.00,,,0.00,HR-IXPWINDi_r2_v1.2.,2013-04-14 12:23:00,
2013-04-14 08:29:00,54.0,42.1,30.09,North,355,1.0,2.0,64,0.00,,,0.00,HR-IXPWINDi_r2_v1.2.,2013-04-14 12:29:00,
2013-04-14 08:34:00,54.4,41.6,30.09,ENE,76,0.0,3.0,62,0.00,,,0.00,HR-IXPWINDi_r2_v1.2.,2013-04-14 12:34:00,
2013-04-14 08:39:00,54.9,41.7,30.09,ENE,76,0.0,3.0,61,0.00,,,0.00,HR-IXPWINDi_r2_v1.2.,2013-04-14 12:39:00,
2013-04-14 08:44:00,55.8,40.8,30.10,ESE,113,1.0,3.0,57,0.00,,,0.00,HR-IXPWINDi_r2_v1.2.,2013-04-14 12:44:00,
2013-04-14 08:49:00,57.0,37.5,30.10,NW,311,0.0,4.0,48,0.00,,,0.00,HR-IXPWINDi_r2_v1.2.,2013-04-14 12:49:00,
2013-04-14 08:54:00,58.0,37.3,30.09,NE,38,0.0,5.0,46,0.00,,,0.00,HR-IXPWINDi_r2_v1.2.,2013-04-14 12:54:00,
2013-04-14 09:00:00,59.0,36.5,30.09,NW,321,2.0,6.0,43,0.00,,,0.00,HR-IXPWINDi_r2_v1.2.,2013-04-14 13:00:00,
2013-04-14 09:05:00,59.9,37.9,30.10,NW,319,2.0,6.0,44,0.00,,,0.00,HR-IXPWINDi_r2_v1.2.,2013-04-14 13:05:00,
2013-04-14 09:10:00,60.7,37.4,30.10,North,355,1.0,6.0,42,0.00,,,0.00,HR-IXPWINDi_r2_v1.2.,2013-04-14 13:10:00,
2013-04-14 09:16:00,61.3,38.0,30.10,NW,321,0.0,4.0,42,0.00,,,0.00,HR-IXPWINDi_r2_v1.2.,2013-04-14 13:16:00,
2013-04-14 09:21:00,62.0,39.2,30.10,NW,315,0.0,8.0,43,0.00,,,0.00,HR-IXPWINDi_r2_v1.2.,2013-04-14 13:21:00,
2013-04-14 09:26:00,62.5,36.5,30.09,NNW,331,0.0,8.0,38,0.00,,,0.00,HR-IXPWINDi_r2_v1.2.,2013-04-14 13:26:00,
2013-04-14 09:31:00,62.7,38.0,30.10,NNW,330,2.0,4.0,40,0.00,,,0.00,HR-IXPWINDi_r2_v1.2.,2013-04-14 13:31:00,
2013-04-14 09:37:00,62.7,36.7,30.09,NNW,327,0.0,5.0,38,0.00,,,0.00,HR-IXPWINDi_r2_v1.2.,2013-04-14 13:37:00,
2013-04-14 09:42:00,62.9,37.5,30.10,WSW,241,0.0,7.0,39,0.00,,,0.00,HR-IXPWINDi_r2_v1.2.,2013-04-14 13:42:00,
2013-04-14 09:48:00,63.4,39.3,30.10,NNW,343,0.0,7.0,41,0.00,,,0.00,HR-IXPWINDi_r2_v1.2.,2013-04-14 13:48:00,
2013-04-14 09:53:00,64.1,39.9,30.10,NNW,338,0.0,4.0,41,0.00,,,0.00,HR-IXPWINDi_r2_v1.2.,2013-04-14 13:53:00,
2013-04-14 09:58:00,64.7,37.8,30.10,SSW,193,4.0,4.0,37,0.00,,,0.00,HR-IXPWINDi_r2_v1.2.,2013-04-14 13:58:00,
2013-04-14 10:03:00,65.0,38.7,30.10,South,172,3.0,5.0,38,0.00,,,0.00,HR-IXPWINDi_r2_v1.2.,2013-04-14 14:03:00,
2013-04-14 10:09:00,65.6,37.9,30.09,NNW,330,0.0,6.0,36,0.00,,,0.00,HR-IXPWINDi_r2_v1.2.,2013-04-14 14:09:00,
2013-04-14 10:14:00,66.0,37.5,30.09,NW,324,5.0,6.0,35,0.00,,,0.00,HR-IXPWINDi_r2_v1.2.,2013-04-14 14:14:00,
2013-04-14 10:19:00,66.1,36.9,30.09,NNW,338,3.0,7.0,34,0.00,,,0.00,HR-IXPWINDi_r2_v1.2.,2013-04-14 14:19:00,
2013-04-14 10:25:00,66.5,37.2,30.10,NW,324,2.0,7.0,34,0.00,,,0.00,HR-IXPWINDi_r2_v1.2.,2013-04-14 14:25:00,
2013-04-14 10:30:00,66.9,36.8,30.10,NW,315,3.0,5.0,33,0.00,,,0.00,HR-IXPWINDi_r2_v1.2.,2013-04-14 14:30:00,
2013-04-14 10:35:00,67.1,38.5,30.09,NNW,340,2.0,6.0,35,0.00,,,0.00,HR-IXPWINDi_r2_v1.2.,2013-04-14 14:35:00,
2013-04-14 10:40:00,67.4,40.9,30.10,NNW,344,2.0,8.0,38,0.00,,,0.00,HR-IXPWINDi_r2_v1.2.,2013-04-14 14:40:00,
2013-04-14 10:46:00,67.7,41.1,30.10,NNW,343,3.0,8.0,38,0.00,,,0.00,HR-IXPWINDi_r2_v1.2.,2013-04-14 14:46:00,
2013-04-14 10:51:00,68.2,40.2,30.10,WSW,256,1.0,6.0,36,0.00,,,0.00,HR-IXPWINDi_r2_v1.2.,2013-04-14 14:51:00,
2013-04-14 10:56:00,68.5,39.7,30.10,NW,321,0.0,7.0,35,0.00,,,0.00,HR-IXPWINDi_r2_v1.2.,2013-04-14 14:56:00,
2013-04-14 11:01:00,69.0,40.2,30.09,WNW,296,4.0,7.0,35,0.00,,,0.00,HR-IXPWINDi_r2_v1.2.,2013-04-14 15:01:00,
2013-04-14 11:06:00,69.4,39.0,30.09,NNW,327,3.0,8.0,33,0.00,,,0.00,HR-IXPWINDi_r2_v1.2.,2013-04-14 15:06:00,
2013-04-14 11:12:00,69.5,40.6,30.09,NW,310,2.0,8.0,35,0.00,,,0.00,HR-IXPWINDi_r2_v1.2.,2013-04-14 15:12:00,
2013-04-14 11:17:00,70.1,38.0,30.09,North,5,2.0,7.0,31,0.00,,,0.00,HR-IXPWINDi_r2_v1.2.,2013-04-14 15:17:00,
2013-04-14 11:22:00,70.4,40.7,30.08,NW,309,3.0,6.0,34,0.00,,,0.00,HR-IXPWINDi_r2_v1.2.,2013-04-14 15:22:00,
2013-04-14 11:28:00,71.2,39.8,30.08,NW,305,2.0,6.0,32,0.00,,,0.00,HR-IXPWINDi_r2_v1.2.,2013-04-14 15:28:00,
2013-04-14 11:33:00,71.5,40.1,30.08,North,360,1.0,5.0,32,0.00,,,0.00,HR-IXPWINDi_r2_v1.2.,2013-04-14 15:33:00,
2013-04-14 11:38:00,71.7,41.0,30.08,NNW,332,1.0,5.0,33,0.00,,,0.00,HR-IXPWINDi_r2_v1.2.,2013-04-14 15:38:00,
2013-04-14 11:43:00,72.0,40.5,30.08,NW,321,0.0,5.0,32,0.00,,,0.00,HR-IXPWINDi_r2_v1.2.,2013-04-14 15:43:00,
2013-04-14 11:48:00,72.1,39.8,30.07,North,355,4.0,6.0,31,0.00,,,0.00,HR-IXPWINDi_r2_v1.2.,2013-04-14 15:48:00,
2013-04-14 11:53:00,72.0,39.7,30.07,NNW,330,6.0,8.0,31,0.00,,,0.00,HR-IXPWINDi_r2_v1.2.,2013-04-14 15:53:00,
2013-04-14 11:58:00,72.1,39.8,30.07,NNW,333,2.0,8.0,31,0.00,,,0.00,HR-IXPWINDi_r2_v1.2.,2013-04-14 15:58:00,
2013-04-14 12:03:00,72.6,41.0,30.07,NNE,24,0.0,7.0,32,0.00,,,0.00,HR-IXPWINDi_r2_v1.2.,2013-04-14 16:03:00,
2013-04-14 12:09:00,73.0,40.6,30.06,North,355,4.0,6.0,31,0.00,,,0.00,HR-IXPWINDi_r2_v1.2.,2013-04-14 16:09:00,
2013-04-14 12:14:00,72.8,39.5,30.06,North,355,2.0,8.0,30,0.00,,,0.00,HR-IXPWINDi_r2_v1.2.,2013-04-14 16:14:00,
2013-04-14 12:19:00,73.3,41.6,30.05,WNW,300,0.0,8.0,32,0.00,,,0.00,HR-IXPWINDi_r2_v1.2.,2013-04-14 16:19:00,
2013-04-14 12:24:00,73.5,41.8,30.05,ENE,78,2.0,6.0,32,0.00,,,0.00,HR-IXPWINDi_r2_v1.2.,2013-04-14 16:24:00,
2013-04-14 12:29:00,74.2,40.7,30.05,SE,141,0.0,4.0,30,0.00,,,0.00,HR-IXPWINDi_r2_v1.2.,2013-04-14 16:29:00,
2013-04-14 12:34:00,74.7,42.0,30.05,ENE,72,1.0,5.0,31,0.00,,,0.00,HR-IXPWINDi_r2_v1.2.,2013-04-14 16:34:00,
2013-04-14 12:40:00,75.0,46.2,30.05,West,268,2.0,5.0,36,0.00,,,0.00,HR-IXPWINDi_r2_v1.2.,2013-04-14 16:40:00,
2013-04-14 12:45:00,75.6,43.6,30.05,SSW,211,0.0,8.0,32,0.00,,,0.00,HR-IXPWINDi_r2_v1.2.,2013-04-14 16:45:00,
2013-04-14 12:50:00,75.9,47.0,30.05,WNW,291,0.0,8.0,36,0.00,,,0.00,HR-IXPWINDi_r2_v1.2.,2013-04-14 16:50:00,
2013-04-14 12:55:00,75.8,46.2,30.04,NNE,30,1.0,6.0,35,0.00,,,0.00,HR-IXPWINDi_r2_v1.2.,2013-04-14 16:55:00,
2013-04-14 13:00:00,75.6,44.4,30.04,ESE,118,4.0,5.0,33,0.00,,,0.00,HR-IXPWINDi_r2_v1.2.,2013-04-14 17:00:00,
2013-04-14 13:05:00,75.8,41.3,30.04,ENE,65,1.0,5.0,29,0.00,,,0.00,HR-IXPWINDi_r2_v1.2.,2013-04-14 17:05:00,
2013-04-14 13:11:00,75.8,41.3,30.05,NE,41,0.0,5.0,29,0.00,,,0.00,HR-IXPWINDi_r2_v1.2.,2013-04-14 17:11:00,
2013-04-14 13:16:00,75.7,39.3,30.05,East,92,3.0,4.0,27,0.00,,,0.00,HR-IXPWINDi_r2_v1.2.,2013-04-14 17:16:00,
2013-04-14 13:21:00,75.4,41.8,30.04,NE,55,2.0,4.0,30,0.00,,,0.00,HR-IXPWINDi_r2_v1.2.,2013-04-14 17:21:00,
2013-04-14 13:27:00,75.6,41.1,30.04,ESE,117,2.0,4.0,29,0.00,,,0.00,HR-IXPWINDi_r2_v1.2.,2013-04-14 17:27:00,
2013-04-14 13:32:00,75.7,42.9,30.04,East,87,1.0,3.0,31,0.00,,,0.00,HR-IXPWINDi_r2_v1.2.,2013-04-14 17:32:00,
2013-04-14 13:37:00,76.0,40.5,30.04,ENE,73,0.0,7.0,28,0.00,,,0.00,HR-IXPWINDi_r2_v1.2.,2013-04-14 17:37:00,
2013-04-14 13:42:00,76.0,41.4,30.04,NE,45,1.0,7.0,29,0.00,,,0.00,HR-IXPWINDi_r2_v1.2.,2013-04-14 17:42:00,
2013-04-14 13:47:00,76.0,41.4,30.03,North,5,2.0,5.0,29,0.00,,,0.00,HR-IXPWINDi_r2_v1.2.,2013-04-14 17:47:00,
2013-04-14 13:52:00,76.3,43.4,30.03,East,87,0.0,5.0,31,0.00,,,0.00,HR-IXPWINDi_r2_v1.2.,2013-04-14 17:52:00,
2013-04-14 13:58:00,76.0,44.0,30.03,NE,34,2.0,6.0,32,0.00,,,0.00,HR-IXPWINDi_r2_v1.2.,2013-04-14 17:58:00,
2013-04-14 14:03:00,75.5,43.6,30.03,West,273,1.0,6.0,32,0.00,,,0.00,HR-IXPWINDi_r2_v1.2.,2013-04-14 18:03:00,
2013-04-14 14:08:00,75.4,44.3,30.03,ESE,113,2.0,6.0,33,0.00,,,0.00,HR-IXPWINDi_r2_v1.2.,2013-04-14 18:08:00,
2013-04-14 14:13:00,75.4,44.3,30.03,ENE,69,2.0,5.0,33,0.00,,,0.00,HR-IXPWINDi_r2_v1.2.,2013-04-14 18:13:00,
2013-04-14 14:19:00,75.3,42.5,30.02,SE,128,1.0,5.0,31,0.00,,,0.00,HR-IXPWINDi_r2_v1.2.,2013-04-14 18:19:00,
2013-04-14 14:24:00,75.2,42.5,30.02,ENE,76,0.0,4.0,31,0.00,,,0.00,HR-IXPWINDi_r2_v1.2.,2013-04-14 18:24:00,
2013-04-14 14:29:00,75.2,42.5,30.01,East,86,0.0,7.0,31,0.00,,,0.00,HR-IXPWINDi_r2_v1.2.,2013-04-14 18:29:00,
2013-04-14 14:34:00,76.1,44.1,30.00,NE,52,0.0,7.0,32,0.00,,,0.00,HR-IXPWINDi_r2_v1.2.,2013-04-14 18:34:00,
2013-04-14 14:39:00,77.4,41.7,30.01,ENE,74,2.0,11.0,28,0.00,,,0.00,HR-IXPWINDi_r2_v1.2.,2013-04-14 18:39:00,
2013-04-14 14:44:00,77.4,43.5,30.00,NW,322,2.0,11.0,30,0.00,,,0.00,HR-IXPWINDi_r2_v1.2.,2013-04-14 18:44:00,
2013-04-14 14:49:00,77.6,41.9,30.00,NE,46,2.0,11.0,28,0.00,,,0.00,HR-IXPWINDi_r2_v1.2.,2013-04-14 18:49:00,
2013-04-14 14:54:00,77.7,43.8,30.00,SSE,159,1.0,7.0,30,0.00,,,0.00,HR-IXPWINDi_r2_v1.2.,2013-04-14 18:54:00,
2013-04-14 14:59:00,77.4,41.7,30.00,NNW,346,5.0,10.0,28,0.00,,,0.00,HR-IXPWINDi_r2_v1.2.,2013-04-14 18:59:00,
2013-04-14 15:04:00,77.7,41.0,30.00,East,96,3.0,10.0,27,0.00,,,0.00,HR-IXPWINDi_r2_v1.2.,2013-04-14 19:04:00,
2013-04-14 15:09:00,77.5,42.7,30.00,NNW,329,2.0,7.0,29,0.00,,,0.00,HR-IXPWINDi_r2_v1.2.,2013-04-14 19:09:00,
2013-04-14 15:14:00,77.5,41.8,30.00,West,261,0.0,4.0,28,0.00,,,0.00,HR-IXPWINDi_r2_v1.2.,2013-04-14 19:14:00,
2013-04-14 15:20:00,77.9,42.1,29.99,NE,55,0.0,6.0,28,0.00,,,0.00,HR-IXPWINDi_r2_v1.2.,2013-04-14 19:20:00,
2013-04-14 15:25:00,78.4,42.6,29.99,NE,34,0.0,6.0,28,0.00,,,0.00,HR-IXPWINDi_r2_v1.2.,2013-04-14 19:25:00,
2013-04-14 15:30:00,78.9,42.1,29.99,East,90,1.0,5.0,27,0.00,,,0.00,HR-IXPWINDi_r2_v1.2.,2013-04-14 19:30:00,
2013-04-14 15:35:00,79.1,40.2,29.98,ESE,117,0.0,4.0,25,0.00,,,0.00,HR-IXPWINDi_r2_v1.2.,2013-04-14 19:35:00,
2013-04-14 15:40:00,79.0,40.2,29.98,SE,139,8.0,8.0,25,0.00,,,0.00,HR-IXPWINDi_r2_v1.2.,2013-04-14 19:40:00,
2013-04-14 15:46:00,78.7,40.9,29.99,WSW,249,0.0,11.0,26,0.00,,,0.00,HR-IXPWINDi_r2_v1.2.,2013-04-14 19:46:00,
2013-04-14 15:51:00,78.7,42.8,29.98,WNW,299,0.0,11.0,28,0.00,,,0.00,HR-IXPWINDi_r2_v1.2.,2013-04-14 19:51:00,
2013-04-14 15:56:00,78.6,41.8,29.98,ESE,120,3.0,10.0,27,0.00,,,0.00,HR-IXPWINDi_r2_v1.2.,2013-04-14 19:56:00,
2013-04-14 16:02:00,78.5,39.7,29.98,NNW,331,2.0,10.0,25,0.00,,,0.00,HR-IXPWINDi_r2_v1.2.,2013-04-14 20:02:00,
2013-04-14 16:07:00,78.6,37.7,29.98,South,179,2.0,11.0,23,0.00,,,0.00,HR-IXPWINDi_r2_v1.2.,2013-04-14 20:07:00,
2013-04-14 16:12:00,78.7,39.9,29.98,SSW,192,0.0,11.0,25,0.00,,,0.00,HR-IXPWINDi_r2_v1.2.,2013-04-14 20:12:00,
2013-04-14 16:17:00,78.6,37.7,29.98,NNW,347,2.0,6.0,23,0.00,,,0.00,HR-IXPWINDi_r2_v1.2.,2013-04-14 20:17:00,
2013-04-14 16:22:00,78.7,38.9,29.98,East,84,3.0,6.0,24,0.00,,,0.00,HR-IXPWINDi_r2_v1.2.,2013-04-14 20:22:00,
2013-04-14 16:27:00,78.5,41.7,29.98,East,90,2.0,6.0,27,0.00,,,0.00,HR-IXPWINDi_r2_v1.2.,2013-04-14 20:27:00,
2013-04-14 16:33:00,78.6,40.8,29.98,ENE,78,0.0,7.0,26,0.00,,,0.00,HR-IXPWINDi_r2_v1.2.,2013-04-14 20:33:00,
2013-04-14 16:38:00,78.6,40.8,29.98,ESE,120,2.0,7.0,26,0.00,,,0.00,HR-IXPWINDi_r2_v1.2.,2013-04-14 20:38:00,
2013-04-14 16:43:00,78.5,41.7,29.98,ESE,106,0.0,3.0,27,0.00,,,0.00,HR-IXPWINDi_r2_v1.2.,2013-04-14 20:43:00,
2013-04-14 16:48:00,78.3,41.5,29.98,WNW,288,2.0,3.0,27,0.00,,,0.00,HR-IXPWINDi_r2_v1.2.,2013-04-14 20:48:00,
2013-04-14 16:53:00,77.9,42.1,29.98,East,88,6.0,7.0,28,0.00,,,0.00,HR-IXPWINDi_r2_v1.2.,2013-04-14 20:53:00,
2013-04-14 16:58:00,77.5,40.9,29.98,SSW,203,2.0,8.0,27,0.00,,,0.00,HR-IXPWINDi_r2_v1.2.,2013-04-14 20:58:00,
2013-04-14 17:04:00,77.2,39.6,29.98,SSE,161,3.0,8.0,26,0.00,,,0.00,HR-IXPWINDi_r2_v1.2.,2013-04-14 21:04:00,
2013-04-14 17:09:00,76.9,42.2,29.98,ENE,67,8.0,8.0,29,0.00,,,0.00,HR-IXPWINDi_r2_v1.2.,2013-04-14 21:09:00,
2013-04-14 17:14:00,76.5,39.0,29.98,ENE,65,0.0,8.0,26,0.00,,,0.00,HR-IXPWINDi_r2_v1.2.,2013-04-14 21:14:00,
2013-04-14 17:19:00,76.5,40.0,29.98,WSW,248,0.0,8.0,27,0.00,,,0.00,HR-IXPWINDi_r2_v1.2.,2013-04-14 21:19:00,
2013-04-14 17:24:00,76.5,40.0,29.99,SW,219,0.0,7.0,27,0.00,,,0.00,HR-IXPWINDi_r2_v1.2.,2013-04-14 21:24:00,
2013-04-14 17:29:00,76.6,40.1,29.99,South,190,3.0,4.0,27,0.00,,,0.00,HR-IXPWINDi_r2_v1.2.,2013-04-14 21:29:00,
2013-04-14 17:34:00,76.6,39.1,29.99,SSE,155,0.0,5.0,26,0.00,,,0.00,HR-IXPWINDi_r2_v1.2.,2013-04-14 21:34:00,
2013-04-14 17:40:00,76.5,40.0,29.99,East,96,0.0,5.0,27,0.00,,,0.00,HR-IXPWINDi_r2_v1.2.,2013-04-14 21:40:00,
2013-04-14 17:45:00,76.4,42.7,29.99,East,86,2.0,2.0,30,0.00,,,0.00,HR-IXPWINDi_r2_v1.2.,2013-04-14 21:45:00,
2013-04-14 17:50:00,76.0,38.6,29.99,NNE,14,2.0,5.0,26,0.00,,,0.00,HR-IXPWINDi_r2_v1.2.,2013-04-14 21:50:00,
2013-04-14 17:56:00,75.7,40.3,29.99,ESE,114,0.0,5.0,28,0.00,,,0.00,HR-IXPWINDi_r2_v1.2.,2013-04-14 21:56:00,
2013-04-14 18:02:00,75.5,38.2,29.99,ENE,65,4.0,5.0,26,0.00,,,0.00,HR-IXPWINDi_r2_v1.2.,2013-04-14 22:02:00,
2013-04-14 18:07:00,75.2,38.9,30.00,NNW,333,0.0,7.0,27,0.00,,,0.00,HR-IXPWINDi_r2_v1.2.,2013-04-14 22:07:00,
2013-04-14 18:12:00,75.2,40.7,30.00,NNW,339,0.0,7.0,29,0.00,,,0.00,HR-IXPWINDi_r2_v1.2.,2013-04-14 22:12:00,
2013-04-14 18:17:00,75.1,37.9,30.00,ENE,77,0.0,2.0,26,0.00,,,0.00,HR-IXPWINDi_r2_v1.2.,2013-04-14 22:17:00,
2013-04-14 18:22:00,75.0,38.7,30.00,West,276,0.0,3.0,27,0.00,,,0.00,HR-IXPWINDi_r2_v1.2.,2013-04-14 22:22:00,
2013-04-14 18:27:00,74.8,39.5,30.00,ESE,102,2.0,7.0,28,0.00,,,0.00,HR-IXPWINDi_r2_v1.2.,2013-04-14 22:27:00,
2013-04-14 18:32:00,74.7,38.5,30.00,NNE,17,0.0,7.0,27,0.00,,,0.00,HR-IXPWINDi_r2_v1.2.,2013-04-14 22:32:00,
2013-04-14 18:37:00,74.5,39.2,30.00,SE,140,0.0,3.0,28,0.00,,,0.00,HR-IXPWINDi_r2_v1.2.,2013-04-14 22:37:00,
2013-04-14 18:43:00,74.3,38.1,30.00,NE,35,2.0,3.0,27,0.00,,,0.00,HR-IXPWINDi_r2_v1.2.,2013-04-14 22:43:00,
2013-04-14 18:48:00,74.1,38.0,30.00,NW,324,0.0,3.0,27,0.00,,,0.00,HR-IXPWINDi_r2_v1.2.,2013-04-14 22:48:00,
2013-04-14 18:53:00,74.0,38.8,30.00,NW,323,0.0,7.0,28,0.00,,,0.00,HR-IXPWINDi_r2_v1.2.,2013-04-14 22:53:00,
2013-04-14 18:58:00,73.7,38.6,29.99,SE,132,3.0,7.0,28,0.00,,,0.00,HR-IXPWINDi_r2_v1.2.,2013-04-14 22:58:00,
2013-04-14 19:03:00,73.7,38.6,29.99,SSW,204,0.0,7.0,28,0.00,,,0.00,HR-IXPWINDi_r2_v1.2.,2013-04-14 23:03:00,
2013-04-14 19:08:00,73.5,38.4,29.99,ENE,69,1.0,7.0,28,0.00,,,0.00,HR-IXPWINDi_r2_v1.2.,2013-04-14 23:08:00,
2013-04-14 19:13:00,73.3,39.1,30.00,East,79,0.0,3.0,29,0.00,,,0.00,HR-IXPWINDi_r2_v1.2.,2013-04-14 23:13:00,
2013-04-14 19:19:00,73.1,38.0,29.99,East,86,1.0,2.0,28,0.00,,,0.00,HR-IXPWINDi_r2_v1.2.,2013-04-14 23:19:00,
2013-04-14 19:24:00,72.9,38.8,30.00,ESE,106,0.0,1.0,29,0.00,,,0.00,HR-IXPWINDi_r2_v1.2.,2013-04-14 23:24:00,
2013-04-14 19:29:00,72.6,38.5,30.00,SE,143,1.0,3.0,29,0.00,,,0.00,HR-IXPWINDi_r2_v1.2.,2013-04-14 23:29:00,
2013-04-14 19:34:00,72.4,37.4,29.99,East,101,0.0,7.0,28,0.00,,,0.00,HR-IXPWINDi_r2_v1.2.,2013-04-14 23:34:00,
2013-04-14 19:39:00,72.4,37.4,30.00,SW,216,0.0,7.0,28,0.00,,,0.00,HR-IXPWINDi_r2_v1.2.,2013-04-14 23:39:00,
2013-04-14 19:45:00,72.2,39.0,29.99,NNW,344,0.0,3.0,30,0.00,,,0.00,HR-IXPWINDi_r2_v1.2.,2013-04-14 23:45:00,
2013-04-14 19:50:00,72.0,38.0,29.99,East,98,0.0,3.0,29,0.00,,,0.00,HR-IXPWINDi_r2_v1.2.,2013-04-14 23:50:00,
2013-04-14 19:55:00,71.8,38.7,30.00,NE,37,0.0,2.0,30,0.00,,,0.00,HR-IXPWINDi_r2_v1.2.,2013-04-14 23:55:00,
2013-04-14 20:00:00,71.7,38.6,30.00,ESE,119,0.0,3.0,30,0.00,,,0.00,HR-IXPWINDi_r2_v1.2.,2013-04-15 00:00:00,
2013-04-14 20:06:00,71.6,39.3,29.99,ENE,59,2.0,3.0,31,0.00,,,0.00,HR-IXPWINDi_r2_v1.2.,2013-04-15 00:06:00,
2013-04-14 20:11:00,71.3,39.1,29.99,WSW,248,0.0,6.0,31,0.00,,,0.00,HR-IXPWINDi_r2_v1.2.,2013-04-15 00:11:00,
2013-04-14 20:16:00,71.1,38.9,29.99,WSW,248,0.0,6.0,31,0.00,,,0.00,HR-IXPWINDi_r2_v1.2.,2013-04-15 00:16:00,
2013-04-14 20:21:00,70.8,38.6,29.99,WSW,237,0.0,1.0,31,0.00,,,0.00,HR-IXPWINDi_r2_v1.2.,2013-04-15 00:21:00,
2013-04-14 20:26:00,70.7,39.4,29.99,East,85,0.0,2.0,32,0.00,,,0.00,HR-IXPWINDi_r2_v1.2.,2013-04-15 00:26:00,
2013-04-14 20:31:00,70.6,40.8,29.99,East,85,0.0,2.0,34,0.00,,,0.00,HR-IXPWINDi_r2_v1.2.,2013-04-15 00:31:00,
2013-04-14 20:36:00,70.4,39.9,29.99,East,85,0.0,1.0,33,0.00,,,0.00,HR-IXPWINDi_r2_v1.2.,2013-04-15 00:36:00,
2013-04-14 20:42:00,70.0,40.3,30.00,East,85,0.0,0.0,34,0.00,,,0.00,HR-IXPWINDi_r2_v1.2.,2013-04-15 00:42:00,
2013-04-14 20:47:00,69.5,40.6,29.99,East,85,0.0,0.0,35,0.00,,,0.00,HR-IXPWINDi_r2_v1.2.,2013-04-15 00:47:00,
2013-04-14 20:52:00,69.2,40.4,30.00,ESE,109,0.0,4.0,35,0.00,,,0.00,HR-IXPWINDi_r2_v1.2.,2013-04-15 00:52:00,
2013-04-14 20:57:00,69.0,41.6,30.00,ESE,109,0.0,4.0,37,0.00,,,0.00,HR-IXPWINDi_r2_v1.2.,2013-04-15 00:57:00,
2013-04-14 21:03:00,68.8,40.0,30.00,ESE,109,0.0,1.0,35,0.00,,,0.00,HR-IXPWINDi_r2_v1.2.,2013-04-15 01:03:00,
2013-04-14 21:09:00,68.6,39.8,30.00,ESE,109,0.0,1.0,35,0.00,,,0.00,HR-IXPWINDi_r2_v1.2.,2013-04-15 01:09:00,
2013-04-14 21:14:00,68.5,40.5,30.00,ESE,109,0.0,0.0,36,0.00,,,0.00,HR-IXPWINDi_r2_v1.2.,2013-04-15 01:14:00,
2013-04-14 21:19:00,68.4,41.1,30.00,ESE,109,0.0,0.0,37,0.00,,,0.00,HR-IXPWINDi_r2_v1.2.,2013-04-15 01:19:00,
2013-04-14 21:24:00,68.3,40.3,30.00,NE,42,0.0,1.0,36,0.00,,,0.00,HR-IXPWINDi_r2_v1.2.,2013-04-15 01:24:00,
2013-04-14 21:30:00,68.2,40.2,30.00,NE,42,0.0,1.0,36,0.00,,,0.00,HR-IXPWINDi_r2_v1.2.,2013-04-15 01:30:00,
2013-04-14 21:35:00,68.1,39.4,30.00,ESE,114,0.0,0.0,35,0.00,,,0.00,HR-IXPWINDi_r2_v1.2.,2013-04-15 01:35:00,
2013-04-14 21:40:00,68.1,41.5,30.00,ESE,114,0.0,1.0,38,0.00,,,0.00,HR-IXPWINDi_r2_v1.2.,2013-04-15 01:40:00,
2013-04-14 21:45:00,67.9,39.9,30.00,ESE,115,0.0,1.0,36,0.00,,,0.00,HR-IXPWINDi_r2_v1.2.,2013-04-15 01:45:00,
2013-04-14 21:51:00,67.9,40.6,30.01,ESE,115,0.0,0.0,37,0.00,,,0.00,HR-IXPWINDi_r2_v1.2.,2013-04-15 01:51:00,
2013-04-14 21:56:00,67.7,40.5,30.01,ESE,115,0.0,1.0,37,0.00,,,0.00,HR-IXPWINDi_r2_v1.2.,2013-04-15 01:56:00,
2013-04-14 22:01:00,67.7,41.1,30.01,SW,227,0.0,1.0,38,0.00,,,0.00,HR-IXPWINDi_r2_v1.2.,2013-04-15 02:01:00,
2013-04-14 22:06:00,67.7,40.5,30.01,SW,227,0.0,1.0,37,0.00,,,0.00,HR-IXPWINDi_r2_v1.2.,2013-04-15 02:06:00,
2013-04-14 22:12:00,67.6,41.1,30.01,SW,226,0.0,0.0,38,0.00,,,0.00,HR-IXPWINDi_r2_v1.2.,2013-04-15 02:12:00,
2013-04-14 22:17:00,67.5,41.0,30.01,SW,226,0.0,0.0,38,0.00,,,0.00,HR-IXPWINDi_r2_v1.2.,2013-04-15 02:17:00,
2013-04-14 22:22:00,67.3,40.1,30.01,SW,226,0.0,0.0,37,0.00,,,0.00,HR-IXPWINDi_r2_v1.2.,2013-04-15 02:22:00,
2013-04-14 22:27:00,67.2,40.0,30.01,SW,226,0.0,0.0,37,0.00,,,0.00,HR-IXPWINDi_r2_v1.2.,2013-04-15 02:27:00,
2013-04-14 22:32:00,67.1,41.3,30.01,SSE,154,0.0,4.0,39,0.00,,,0.00,HR-IXPWINDi_r2_v1.2.,2013-04-15 02:32:00,
2013-04-14 22:38:00,67.1,41.3,30.01,South,172,0.0,4.0,39,0.00,,,0.00,HR-IXPWINDi_r2_v1.2.,2013-04-15 02:38:00,
2013-04-14 22:43:00,67.2,42.7,30.01,South,172,0.0,2.0,41,0.00,,,0.00,HR-IXPWINDi_r2_v1.2.,2013-04-15 02:43:00,
2013-04-14 22:48:00,67.1,42.6,30.02,South,172,0.0,1.0,41,0.00,,,0.00,HR-IXPWINDi_r2_v1.2.,2013-04-15 02:48:00,
2013-04-14 22:53:00,67.0,41.2,30.01,South,172,0.0,2.0,39,0.00,,,0.00,HR-IXPWINDi_r2_v1.2.,2013-04-15 02:53:00,
2013-04-14 22:58:00,67.0,41.8,30.01,South,172,0.0,2.0,40,0.00,,,0.00,HR-IXPWINDi_r2_v1.2.,2013-04-15 02:58:00,
2013-04-14 23:03:00,66.8,42.9,30.01,South,172,0.0,0.0,42,0.00,,,0.00,HR-IXPWINDi_r2_v1.2.,2013-04-15 03:03:00,
2013-04-14 23:09:00,66.6,42.8,30.01,South,172,0.0,0.0,42,0.00,,,0.00,HR-IXPWINDi_r2_v1.2.,2013-04-15 03:09:00,
2013-04-14 23:14:00,66.5,42.0,30.01,South,172,0.0,0.0,41,0.00,,,0.00,HR-IXPWINDi_r2_v1.2.,2013-04-15 03:14:00,
2013-04-14 23:19:00,66.3,43.1,30.02,South,172,0.0,1.0,43,0.00,,,0.00,HR-IXPWINDi_r2_v1.2.,2013-04-15 03:19:00,
2013-04-14 23:24:00,66.2,42.4,30.03,SSW,194,0.0,2.0,42,0.00,,,0.00,HR-IXPWINDi_r2_v1.2.,2013-04-15 03:24:00,
2013-04-14 23:29:00,66.3,43.1,30.03,South,175,0.0,2.0,43,0.00,,,0.00,HR-IXPWINDi_r2_v1.2.,2013-04-15 03:29:00,
2013-04-14 23:35:00,66.5,43.9,30.03,SSW,201,3.0,5.0,44,0.00,,,0.00,HR-IXPWINDi_r2_v1.2.,2013-04-15 03:35:00,
2013-04-14 23:40:00,66.7,44.6,30.03,WNW,284,0.0,5.0,45,0.00,,,0.00,HR-IXPWINDi_r2_v1.2.,2013-04-15 03:40:00,
2013-04-14 23:45:00,66.7,45.2,30.04,SSW,200,0.0,5.0,46,0.00,,,0.00,HR-IXPWINDi_r2_v1.2.,2013-04-15 03:45:00,
2013-04-14 23:50:00,66.7,45.2,30.04,SSW,200,0.0,2.0,46,0.00,,,0.00,HR-IXPWINDi_r2_v1.2.,2013-04-15 03:50:00,
2013-04-14 23:56:00,66.6,46.3,30.04,SSW,200,0.0,2.0,48,0.00,,,0.00,HR-IXPWINDi_r2_v1.2.,2013-04-15 03:56:00,